Аэропорт: Бесовец. Петрозаводск

ICAO: ULPB

METAR:
2024-07-24 15:00:00
ULPB 241500Z 36003MPS 320V050 CAVOK 27/10 Q1014 R19/CLRD70 NOSIG RMK QFE756/1009
TAF:
Информация по данной станции не доступна